Beloit, Kansas
Current Conditions -  °F | °C
As of 2:55 PM on Friday 31 Oct 2014 (Local Time) from KCNK Reporting Station
Clear Clear  
Wind Chill: 41°   Ceiling: Unl
Heat Index: 46°   Visibility: 10mi
Dew Point: 16°   Wind: 10mph
Humidity: 30%   Direction: 40°NE
Pressure: 30.48"   Gusts: NA
Location:  39.46°N, 98.11°W
Report Text: KCNK 311955Z AUTO 04009KT 10SM CLR 08/M09 A3048 RMK AO2 SLP328 T00781089
Loading
Personal Weather Stations






























Interactive Weather Map New forecast layout! Learn more

10-Day Weather Forecast

Advertisements
Track Severe Weather on mobile